createdAt,value
2023-02-02T00:00:26.471Z,0.98
2023-02-02T00:02:53.177Z,0.73
2023-02-02T00:05:19.933Z,1.23
2023-02-02T00:07:46.525Z,2.50
2023-02-02T00:10:13.102Z,1.77
2023-02-02T00:12:39.872Z,1.67
2023-02-02T00:15:07.022Z,1.98
2023-02-02T00:17:33.811Z,1.40
2023-02-02T00:20:00.536Z,1.90
2023-02-02T00:22:28.030Z,1.58
2023-02-02T00:24:54.783Z,1.20
2023-02-02T00:27:21.412Z,1.63
2023-02-02T00:29:48.151Z,1.67
2023-02-02T00:32:14.796Z,2.10
2023-02-02T00:34:41.586Z,1.77
2023-02-02T00:37:08.307Z,1.08
2023-02-02T00:39:35.078Z,1.85
2023-02-02T00:42:01.680Z,1.05
2023-02-02T00:44:47.088Z,1.15
2023-02-02T00:47:13.718Z,0.80
2023-02-02T00:49:40.368Z,2.28
2023-02-02T00:52:07.012Z,1.45
2023-02-02T00:54:33.563Z,1.25
2023-02-02T00:57:00.204Z,1.25
2023-02-02T00:59:26.817Z,1.23
2023-02-02T01:01:53.531Z,0.95
2023-02-02T01:04:20.277Z,1.52
2023-02-02T01:06:46.920Z,0.95
2023-02-02T01:09:13.523Z,0.98
2023-02-02T01:11:40.215Z,0.40
2023-02-02T01:14:07.128Z,1.10
2023-02-02T01:16:33.918Z,1.55
2023-02-02T01:19:00.887Z,1.17
2023-02-02T01:21:27.770Z,1.77
2023-02-02T01:23:54.394Z,1.38
2023-02-02T01:26:22.053Z,1.00
2023-02-02T01:28:48.917Z,1.13
2023-02-02T01:31:18.813Z,1.00
2023-02-02T01:33:47.372Z,1.27
2023-02-02T01:36:16.689Z,0.52
2023-02-02T01:38:44.115Z,1.13
2023-02-02T01:41:16.983Z,1.13
2023-02-02T01:43:43.927Z,0.70
2023-02-02T01:46:13.022Z,1.35
2023-02-02T01:48:43.403Z,1.05
2023-02-02T01:51:15.995Z,0.98
2023-02-02T01:53:45.211Z,1.27
2023-02-02T01:56:17.315Z,1.00
2023-02-02T01:58:45.243Z,1.02
2023-02-02T02:01:12.951Z,0.50
2023-02-02T02:03:39.590Z,0.55
2023-02-02T02:06:09.958Z,0.55
2023-02-02T02:09:00.265Z,0.50
2023-02-02T02:11:27.456Z,0.22
2023-02-02T02:14:15.263Z,1.08
2023-02-02T02:17:08.798Z,0.25
2023-02-02T02:20:27.592Z,0.75
2023-02-02T02:23:51.833Z,0.95
2023-02-02T02:26:46.489Z,0.40
2023-02-02T02:29:22.512Z,1.48
2023-02-02T02:32:13.952Z,1.17
2023-02-02T02:34:53.630Z,0.68
2023-02-02T02:37:47.893Z,0.60
2023-02-02T02:40:30.137Z,1.08
2023-02-02T02:43:01.320Z,1.08
2023-02-02T02:45:28.932Z,0.98
2023-02-02T02:47:55.743Z,0.60
2023-02-02T02:50:22.820Z,1.85
2023-02-02T02:52:56.560Z,1.30
2023-02-02T02:55:25.645Z,0.17
2023-02-02T02:58:05.058Z,0.82
2023-02-02T03:00:55.500Z,0.43
2023-02-02T03:03:34.527Z,0.80
2023-02-02T03:06:22.697Z,0.65
2023-02-02T03:08:58.427Z,0.90
2023-02-02T03:11:25.380Z,0.52
2023-02-02T03:13:52.628Z,0.88
2023-02-02T03:16:19.251Z,0.30
2023-02-02T03:18:46.183Z,0.20
2023-02-02T03:21:12.860Z,0.40
2023-02-02T03:23:39.611Z,0.47
2023-02-02T03:26:06.907Z,0.57
2023-02-02T03:28:34.227Z,0.88
2023-02-02T03:31:02.397Z,0.15
2023-02-02T03:33:31.661Z,0.93
2023-02-02T03:35:58.274Z,0.32
2023-02-02T03:38:24.967Z,1.10
2023-02-02T03:40:51.979Z,0.95
2023-02-02T03:43:27.591Z,1.10
2023-02-02T03:45:59.426Z,0.75
2023-02-02T03:48:26.896Z,1.00
2023-02-02T03:50:54.136Z,0.82
2023-02-02T03:53:21.385Z,1.38
2023-02-02T03:55:48.064Z,0.17
2023-02-02T03:58:15.004Z,0.52
2023-02-02T04:00:41.610Z,0.45
2023-02-02T04:03:08.406Z,0.17
2023-02-02T04:05:35.250Z,0.47
2023-02-02T04:08:02.017Z,0.55
2023-02-02T04:10:28.640Z,0.30
2023-02-02T04:12:55.368Z,1.45
2023-02-02T04:15:22.292Z,1.70
2023-02-02T04:17:49.171Z,0.70
2023-02-02T04:20:16.082Z,0.93
2023-02-02T04:22:42.842Z,0.50
2023-02-02T04:25:09.594Z,0.32
2023-02-02T04:27:36.232Z,0.85
2023-02-02T04:30:03.300Z,0.38
2023-02-02T04:32:30.029Z,0.22
2023-02-02T04:34:56.680Z,0.38
2023-02-02T04:37:23.357Z,0.40
2023-02-02T04:39:50.672Z,0.50
2023-02-02T04:42:17.474Z,0.43
2023-02-02T04:44:45.748Z,1.02
2023-02-02T04:47:12.406Z,0.22
2023-02-02T04:49:39.423Z,0.88
2023-02-02T04:52:06.112Z,0.40
2023-02-02T04:54:33.353Z,0.93
2023-02-02T04:56:59.984Z,0.47
2023-02-02T04:59:28.968Z,0.82
2023-02-02T05:02:02.369Z,0.45
2023-02-02T05:04:29.066Z,0.40
2023-02-02T05:06:55.935Z,0.80
2023-02-02T05:09:22.916Z,1.27
2023-02-02T05:11:49.526Z,0.28
2023-02-02T05:14:18.529Z,0.70
2023-02-02T05:16:45.634Z,0.82
2023-02-02T05:19:12.780Z,0.40
2023-02-02T05:21:39.457Z,0.68
2023-02-02T05:24:06.530Z,0.17
2023-02-02T05:26:33.387Z,0.30
2023-02-02T05:29:00.065Z,0.47
2023-02-02T05:31:26.861Z,0.63
2023-02-02T05:33:53.451Z,1.10
2023-02-02T05:36:20.222Z,0.75
2023-02-02T05:38:46.835Z,0.40
2023-02-02T05:41:13.491Z,0.68
2023-02-02T05:43:40.138Z,0.57
2023-02-02T05:46:06.857Z,0.75
2023-02-02T05:48:33.490Z,1.88
2023-02-02T05:51:06.583Z,1.25
2023-02-02T05:53:33.897Z,0.82
2023-02-02T05:56:00.775Z,0.43
2023-02-02T05:58:28.270Z,0.55
2023-02-02T06:00:56.717Z,0.98
2023-02-02T06:03:23.800Z,0.63
2023-02-02T06:05:50.699Z,0.38
2023-02-02T06:08:17.333Z,0.85
2023-02-02T06:10:44.220Z,1.02
2023-02-02T06:13:10.990Z,0.45
2023-02-02T06:15:38.239Z,1.73
2023-02-02T06:18:06.832Z,0.68
2023-02-02T06:20:33.660Z,0.75
2023-02-02T06:23:02.768Z,0.50
2023-02-02T06:25:29.523Z,0.65
2023-02-02T06:28:00.232Z,0.90
2023-02-02T06:30:28.055Z,0.90
2023-02-02T06:32:54.809Z,1.25
2023-02-02T06:35:21.896Z,0.65
2023-02-02T06:37:49.099Z,1.58
2023-02-02T06:40:16.015Z,0.80
2023-02-02T06:42:42.632Z,1.02
2023-02-02T06:45:10.028Z,0.90
2023-02-02T06:47:36.674Z,0.90
2023-02-02T06:50:04.109Z,0.85
2023-02-02T06:52:30.837Z,0.40
2023-02-02T06:54:59.125Z,0.57
2023-02-02T06:57:25.800Z,0.08
2023-02-02T06:59:53.107Z,0.98
2023-02-02T07:02:20.229Z,1.13
2023-02-02T07:04:46.923Z,0.77
2023-02-02T07:07:13.535Z,0.80
2023-02-02T07:09:40.284Z,0.22
2023-02-02T07:12:07.107Z,0.40
2023-02-02T07:14:33.874Z,0.43
2023-02-02T07:17:01.555Z,0.70
2023-02-02T07:19:28.325Z,0.40
2023-02-02T07:21:55.156Z,0.47
2023-02-02T07:24:21.906Z,0.80
2023-02-02T07:26:48.676Z,0.60
2023-02-02T07:29:15.288Z,0.73
2023-02-02T07:31:42.544Z,1.35
2023-02-02T07:34:09.372Z,0.95
2023-02-02T07:36:36.683Z,0.70
2023-02-02T07:39:05.133Z,0.88
2023-02-02T07:41:33.602Z,0.20
2023-02-02T07:44:00.240Z,0.50
2023-02-02T07:46:27.271Z,0.50
2023-02-02T07:48:55.657Z,1.13
2023-02-02T07:51:23.332Z,0.82
2023-02-02T07:53:52.227Z,0.77
2023-02-02T07:56:24.715Z,0.47
2023-02-02T07:58:56.587Z,0.32
2023-02-02T08:01:26.087Z,0.40
2023-02-02T08:03:54.388Z,0.90
2023-02-02T08:06:36.031Z,0.40
2023-02-02T08:09:05.236Z,0.55
2023-02-02T08:11:31.906Z,1.00
2023-02-02T08:14:00.738Z,0.40
2023-02-02T08:16:29.277Z,1.02
2023-02-02T08:18:56.682Z,0.80
2023-02-02T08:21:23.706Z,0.73
2023-02-02T08:23:52.468Z,1.05
2023-02-02T08:26:24.744Z,0.40
2023-02-02T08:28:57.747Z,1.35
2023-02-02T08:31:28.336Z,0.38
2023-02-02T08:33:55.556Z,1.10
2023-02-02T08:36:23.632Z,0.70
2023-02-02T08:38:51.213Z,0.95
2023-02-02T08:41:20.434Z,1.00
2023-02-02T08:43:47.291Z,0.50
2023-02-02T08:46:16.919Z,0.90
2023-02-02T08:48:44.144Z,0.38
2023-02-02T08:51:14.373Z,0.77
2023-02-02T08:53:44.985Z,1.05
2023-02-02T08:56:14.467Z,0.93
2023-02-02T08:58:45.757Z,1.15
2023-02-02T09:01:24.899Z,1.00
2023-02-02T09:03:58.057Z,1.10
2023-02-02T09:06:30.727Z,0.57
2023-02-02T09:08:57.486Z,0.57
2023-02-02T09:11:24.472Z,0.68
2023-02-02T09:13:55.735Z,0.63
2023-02-02T09:16:23.705Z,0.60
2023-02-02T09:18:50.963Z,1.20
2023-02-02T09:21:19.022Z,1.27
2023-02-02T09:23:47.972Z,0.63
2023-02-02T09:26:23.432Z,0.45
2023-02-02T09:29:02.956Z,0.88
2023-02-02T09:31:33.083Z,1.35
2023-02-02T09:34:05.805Z,0.68
2023-02-02T09:36:33.525Z,0.35
2023-02-02T09:39:00.322Z,0.30
2023-02-02T09:41:40.657Z,0.40
2023-02-02T09:44:25.627Z,1.42
2023-02-02T09:47:31.386Z,0.40
2023-02-02T09:50:30.941Z,0.80
2023-02-02T09:53:15.611Z,0.65
2023-02-02T09:55:47.523Z,0.55
2023-02-02T09:58:19.999Z,0.63
2023-02-02T10:01:14.859Z,0.73
2023-02-02T10:04:08.412Z,0.65
2023-02-02T10:06:43.450Z,0.68
2023-02-02T10:09:26.143Z,0.38
2023-02-02T10:11:58.720Z,0.73
2023-02-02T10:14:44.782Z,1.15
2023-02-02T10:17:42.290Z,0.32
2023-02-02T10:20:26.548Z,1.15
2023-02-02T10:22:56.049Z,1.00
2023-02-02T10:25:26.506Z,0.80
2023-02-02T10:28:06.664Z,1.05
2023-02-02T10:31:00.731Z,0.63
2023-02-02T10:33:39.745Z,1.00
2023-02-02T10:36:27.946Z,0.88
2023-02-02T10:39:20.155Z,0.50
2023-02-02T10:42:25.149Z,0.95
2023-02-02T10:45:08.664Z,0.50
2023-02-02T10:47:36.405Z,0.40
2023-02-02T10:50:19.197Z,0.60
2023-02-02T10:52:54.817Z,0.65
2023-02-02T10:55:42.602Z,0.38
2023-02-02T10:58:12.081Z,1.02
2023-02-02T11:00:50.804Z,1.60
2023-02-02T11:03:20.733Z,0.50
2023-02-02T11:06:06.113Z,0.60
2023-02-02T11:08:36.681Z,0.95
2023-02-02T11:11:17.263Z,0.50
2023-02-02T11:13:50.129Z,0.75
2023-02-02T11:16:16.782Z,0.38
2023-02-02T11:18:44.511Z,0.22
2023-02-02T11:21:22.557Z,0.40
2023-02-02T11:24:14.177Z,1.38
2023-02-02T11:26:51.332Z,2.53
2023-02-02T11:29:30.895Z,0.60
2023-02-02T11:31:58.332Z,1.85
2023-02-02T11:34:27.586Z,0.40
2023-02-02T11:37:13.464Z,0.77
2023-02-02T11:39:44.298Z,0.40
2023-02-02T11:42:16.330Z,0.38
2023-02-02T11:44:55.915Z,0.70
2023-02-02T11:47:27.868Z,0.98
2023-02-02T11:49:57.479Z,0.52
2023-02-02T11:52:31.350Z,0.82
2023-02-02T11:55:02.699Z,0.20
2023-02-02T11:57:30.581Z,0.73
2023-02-02T12:00:18.012Z,0.40
2023-02-02T12:02:49.323Z,0.85
2023-02-02T12:05:23.553Z,0.68
2023-02-02T12:07:50.379Z,0.43
2023-02-02T12:10:23.121Z,1.02
2023-02-02T12:13:14.829Z,0.13
2023-02-02T12:16:03.267Z,0.60
2023-02-02T12:18:49.454Z,0.73
2023-02-02T12:21:40.873Z,0.68
2023-02-02T12:24:25.851Z,0.50
2023-02-02T12:27:13.856Z,0.10
2023-02-02T12:29:59.103Z,0.30
2023-02-02T12:33:00.418Z,0.85
2023-02-02T12:35:54.531Z,0.47
2023-02-02T12:38:30.508Z,0.50
2023-02-02T12:41:35.135Z,0.50
2023-02-02T12:44:13.847Z,0.93
2023-02-02T12:47:03.787Z,0.50
2023-02-02T12:49:33.374Z,0.52
2023-02-02T12:52:18.537Z,0.50
2023-02-02T12:55:07.322Z,0.80
2023-02-02T12:58:11.727Z,0.40
2023-02-02T13:00:57.136Z,0.50
2023-02-02T13:03:29.875Z,0.73
2023-02-02T13:06:23.789Z,0.20
2023-02-02T13:09:00.843Z,0.50
2023-02-02T13:11:44.713Z,1.30
2023-02-02T13:14:29.290Z,0.75
2023-02-02T13:17:23.312Z,0.95
2023-02-02T13:19:53.893Z,0.63
2023-02-02T13:22:26.989Z,0.47
2023-02-02T13:25:00.036Z,0.57
2023-02-02T13:27:29.108Z,0.88
2023-02-02T13:30:13.528Z,0.77
2023-02-02T13:32:45.148Z,0.85
2023-02-02T13:35:25.791Z,0.73
2023-02-02T13:38:28.982Z,0.70
2023-02-02T13:40:59.083Z,0.85
2023-02-02T13:43:29.181Z,0.85
2023-02-02T13:46:17.618Z,1.40
2023-02-02T13:48:53.136Z,1.00
2023-02-02T13:51:38.593Z,0.77
2023-02-02T13:54:37.071Z,0.88
2023-02-02T13:57:41.318Z,0.90
2023-02-02T14:00:20.501Z,0.55
2023-02-02T14:02:51.997Z,0.40
2023-02-02T14:05:29.223Z,0.75
2023-02-02T14:08:18.485Z,0.80
2023-02-02T14:10:54.424Z,0.60
2023-02-02T14:13:54.276Z,0.43
2023-02-02T14:16:42.901Z,0.40
2023-02-02T14:19:35.322Z,0.93
2023-02-02T14:22:11.908Z,0.70
2023-02-02T14:24:44.040Z,0.60
2023-02-02T14:27:10.714Z,0.82
2023-02-02T14:29:58.950Z,0.60
2023-02-02T14:32:27.691Z,0.40
2023-02-02T14:34:56.573Z,0.68
2023-02-02T14:37:29.787Z,0.50
2023-02-02T14:40:01.861Z,0.68
2023-02-02T14:42:56.265Z,0.25
2023-02-02T14:45:30.529Z,0.32
2023-02-02T14:48:11.718Z,0.63
2023-02-02T14:50:38.309Z,0.20
2023-02-02T14:53:19.070Z,0.35
2023-02-02T14:56:09.341Z,0.50
2023-02-02T14:59:00.214Z,0.50
2023-02-02T15:01:31.283Z,0.35
2023-02-02T15:04:01.104Z,0.10
2023-02-02T15:06:30.666Z,0.20
2023-02-02T15:09:23.232Z,0.15
2023-02-02T15:12:02.155Z,0.32
2023-02-02T15:14:43.161Z,0.47
2023-02-02T15:17:30.769Z,0.10
2023-02-02T15:20:20.958Z,0.80
2023-02-02T15:22:47.644Z,0.20
2023-02-02T15:25:52.207Z,0.30
2023-02-02T15:28:41.343Z,0.38
2023-02-02T15:31:29.720Z,0.20
2023-02-02T15:34:01.233Z,0.70
2023-02-02T15:36:32.211Z,0.63
2023-02-02T15:39:03.016Z,0.30
2023-02-02T15:41:36.482Z,0.85
2023-02-02T15:44:19.195Z,0.63
2023-02-02T15:46:46.867Z,0.17
2023-02-02T15:49:34.271Z,0.28
2023-02-02T15:52:13.571Z,0.45
2023-02-02T15:54:53.430Z,0.88
2023-02-02T15:57:28.704Z,1.00
2023-02-02T15:59:57.451Z,1.13
2023-02-02T16:02:41.632Z,1.15
2023-02-02T16:05:36.345Z,1.35
2023-02-02T16:08:07.002Z,1.25
2023-02-02T16:10:35.183Z,0.98
2023-02-02T16:13:02.650Z,1.92
2023-02-02T16:15:33.763Z,2.05
2023-02-02T16:18:08.086Z,1.50
2023-02-02T16:20:36.567Z,1.17
2023-02-02T16:23:06.113Z,0.82
2023-02-02T16:25:36.986Z,0.60
2023-02-02T16:28:04.474Z,0.77
2023-02-02T16:30:35.531Z,1.30
2023-02-02T16:33:36.373Z,1.08
2023-02-02T16:36:26.152Z,2.72
2023-02-02T16:38:54.080Z,0.70
2023-02-02T16:41:36.646Z,0.68
2023-02-02T16:44:30.119Z,0.80
2023-02-02T16:46:59.660Z,0.47
2023-02-02T16:49:27.213Z,0.68
2023-02-02T16:52:11.441Z,1.52
2023-02-02T16:54:42.476Z,1.17
2023-02-02T16:57:17.726Z,1.10
2023-02-02T16:59:49.689Z,1.98
2023-02-02T17:02:35.740Z,1.95
2023-02-02T17:05:16.813Z,2.20
2023-02-02T17:07:53.580Z,1.63
2023-02-02T17:10:28.394Z,1.20
2023-02-02T17:12:54.965Z,1.20
2023-02-02T17:15:36.339Z,11.07
2023-02-02T17:18:05.144Z,7.65
2023-02-02T17:20:34.643Z,4.80
2023-02-02T17:23:10.273Z,4.30
2023-02-02T17:25:41.357Z,2.40
2023-02-02T17:28:11.995Z,1.80
2023-02-02T17:30:47.940Z,1.02
2023-02-02T17:33:18.529Z,1.10
2023-02-02T17:35:55.682Z,1.25
2023-02-02T17:38:23.963Z,2.45
2023-02-02T17:40:51.360Z,1.33
2023-02-02T17:43:17.990Z,1.40
2023-02-02T17:45:44.903Z,1.73
2023-02-02T17:48:13.670Z,2.15
2023-02-02T17:50:41.687Z,1.50
2023-02-02T17:53:13.537Z,1.17
2023-02-02T17:55:43.441Z,1.35
2023-02-02T17:58:13.275Z,1.63
2023-02-02T18:00:40.857Z,1.40
2023-02-02T18:03:12.444Z,1.30
2023-02-02T18:05:41.272Z,1.95
2023-02-02T18:08:13.632Z,1.83
2023-02-02T18:10:41.435Z,2.28
2023-02-02T18:13:09.853Z,2.60
2023-02-02T18:15:36.617Z,2.75
2023-02-02T18:18:03.481Z,2.28
2023-02-02T18:20:30.036Z,1.80
2023-02-02T18:22:56.868Z,2.60
2023-02-02T18:25:25.733Z,2.78
2023-02-02T18:27:53.883Z,2.50
2023-02-02T18:30:22.024Z,2.90
2023-02-02T18:32:49.793Z,2.60
2023-02-02T18:35:16.387Z,2.55
2023-02-02T18:37:43.036Z,3.38
2023-02-02T18:40:10.238Z,2.30
2023-02-02T18:42:36.981Z,2.58
2023-02-02T18:45:05.116Z,2.63
2023-02-02T18:47:31.935Z,2.58
2023-02-02T18:49:58.793Z,2.33
2023-02-02T18:52:25.677Z,2.97
2023-02-02T18:54:52.319Z,2.85
2023-02-02T18:57:19.156Z,3.38
2023-02-02T18:59:45.842Z,2.90
2023-02-02T19:02:17.545Z,2.67
2023-02-02T19:05:04.961Z,2.75
2023-02-02T19:07:51.255Z,3.40
2023-02-02T19:10:18.906Z,2.65
2023-02-02T19:13:18.241Z,3.15
2023-02-02T19:15:54.356Z,2.35
2023-02-02T19:18:23.615Z,2.22
2023-02-02T19:20:52.362Z,2.45
2023-02-02T19:23:23.422Z,3.22
2023-02-02T19:25:54.230Z,2.75
2023-02-02T19:28:30.941Z,2.50
2023-02-02T19:31:00.108Z,2.33
2023-02-02T19:36:23.629Z,2.75
2023-02-02T19:38:55.743Z,4.65
2023-02-02T19:41:24.624Z,3.65
2023-02-02T19:44:10.220Z,2.63
2023-02-02T19:46:43.295Z,3.20
2023-02-02T19:49:36.056Z,2.85
2023-02-02T19:52:04.217Z,2.13
2023-02-02T19:54:43.741Z,2.35
2023-02-02T19:57:36.515Z,1.48
2023-02-02T20:00:18.955Z,2.42
2023-02-02T20:02:56.072Z,2.28
2023-02-02T20:05:33.734Z,2.15
2023-02-02T20:08:37.093Z,1.80
2023-02-02T20:11:25.686Z,1.67
2023-02-02T20:13:52.496Z,2.15
2023-02-02T20:16:21.820Z,1.48
2023-02-02T20:18:55.346Z,2.53
2023-02-02T20:21:34.381Z,2.50
2023-02-02T20:24:01.570Z,2.00
2023-02-02T20:26:35.787Z,2.20
2023-02-02T20:29:19.117Z,2.60
2023-02-02T20:31:47.316Z,2.35
2023-02-02T20:34:30.365Z,3.97
2023-02-02T20:37:05.583Z,2.47
2023-02-02T20:39:36.356Z,3.80
2023-02-02T20:42:03.686Z,2.80
2023-02-02T20:44:33.522Z,2.85
2023-02-02T20:47:01.937Z,2.55
2023-02-02T20:49:31.914Z,2.70
2023-02-02T20:52:02.164Z,2.30
2023-02-02T20:54:30.570Z,2.72
2023-02-02T20:56:59.155Z,2.88
2023-02-02T20:59:25.937Z,2.42
2023-02-02T21:01:53.762Z,2.05
2023-02-02T21:04:21.509Z,2.30
2023-02-02T21:06:49.294Z,2.10
2023-02-02T21:09:17.014Z,1.83
2023-02-02T21:11:44.385Z,2.17
2023-02-02T21:14:11.348Z,2.65
2023-02-02T21:16:38.094Z,2.58
2023-02-02T21:19:05.052Z,2.13
2023-02-02T21:21:31.663Z,2.25
2023-02-02T21:23:58.365Z,1.90
2023-02-02T21:26:30.630Z,2.25
2023-02-02T21:28:58.475Z,1.90
2023-02-02T21:31:25.872Z,3.10
2023-02-02T21:33:53.116Z,2.60
2023-02-02T21:36:36.332Z,1.55
2023-02-02T21:39:28.579Z,1.02
2023-02-02T21:45:20.307Z,1.42
2023-02-02T21:47:54.604Z,3.33
2023-02-02T21:50:44.842Z,1.38
2023-02-02T21:53:18.936Z,1.60
2023-02-02T21:55:50.453Z,1.90
2023-02-02T21:58:22.225Z,2.25
2023-02-02T22:00:53.612Z,1.45
2023-02-02T22:03:36.851Z,0.90
2023-02-02T22:06:33.505Z,1.55
2023-02-02T22:09:22.131Z,1.75
2023-02-02T22:12:02.327Z,1.27
2023-02-02T22:14:40.732Z,1.10
2023-02-02T22:17:24.110Z,0.90
2023-02-02T22:19:59.032Z,1.30
2023-02-02T22:22:29.413Z,0.98
2023-02-02T22:25:03.479Z,0.80
2023-02-02T22:27:42.273Z,0.68
2023-02-02T22:30:27.502Z,0.73
2023-02-02T22:32:55.420Z,0.80
2023-02-02T22:35:22.067Z,0.80
2023-02-02T22:37:48.885Z,1.13
2023-02-02T22:40:16.358Z,1.38
2023-02-02T22:42:43.397Z,1.00
2023-02-02T22:45:10.227Z,0.95
2023-02-02T22:47:36.955Z,0.73
2023-02-02T22:50:03.679Z,1.25
2023-02-02T22:52:30.276Z,1.10
2023-02-02T22:54:56.888Z,1.02
2023-02-02T22:57:23.629Z,0.93
2023-02-02T22:59:50.174Z,1.00
2023-02-02T23:02:16.962Z,1.25
2023-02-02T23:04:43.703Z,1.13
2023-02-02T23:07:10.374Z,1.10
2023-02-02T23:09:37.003Z,1.02
2023-02-02T23:12:03.731Z,1.45
2023-02-02T23:14:30.381Z,1.42
2023-02-02T23:16:56.949Z,1.05
2023-02-02T23:19:23.494Z,1.58
2023-02-02T23:21:50.162Z,1.65
2023-02-02T23:24:16.742Z,1.75
2023-02-02T23:26:43.335Z,1.50
2023-02-02T23:29:09.930Z,1.30
2023-02-02T23:31:36.643Z,1.23
2023-02-02T23:34:03.388Z,1.77
2023-02-02T23:36:29.985Z,1.40
2023-02-02T23:38:56.561Z,1.80
2023-02-02T23:41:23.166Z,1.35
2023-02-02T23:43:50.477Z,1.42
2023-02-02T23:46:18.030Z,1.63
2023-02-02T23:48:45.229Z,2.20
2023-02-02T23:51:12.965Z,2.10
2023-02-02T23:53:40.742Z,1.83
2023-02-02T23:56:07.596Z,2.13
2023-02-02T23:58:34.178Z,1.90
